Latest Weather Observations for Falls Creek

IDV60801

Issued at 10:12 pm EST Thursday 16 August 2018 (issued every 10 minutes, with the page automatically refreshed every 10 minutes)

About weather observations | Map of weather stations | Latest weather observations for VIC | Other Formats
Station Details ID: 083084 Name: FALLS CREEK Lat: -36.87 Lon: 147.28 Height: 1765.0 m
Data from the previous 72 hours. | See also: Recent months at Falls Creek
Date/Time
EST
Temp
°C
App
Temp
°C
Dew
Point
°C
Rel
Hum
%
Delta-T
°C
Wind Press
QNH
hPa
Press
MSL
hPa
Rain since
9am
mm
Dir  Spd
km/h
Gust
km/h
Spd
kts
Gust
kts
16/10:00pm -2.5 -8.7 -2.9 97 0.0 NW 20 32 11 17 1011.8 1013.9 0.0
16/09:30pm -2.6 -7.5 -3.0 97 0.0 - 13 33 7 18 1011.9 1014.0 0.0
16/09:00pm -2.6 -5.0 -3.0 97 0.0 CALM 0 0 0 0 1012.0 1014.2 0.0
16/08:30pm -2.7 -5.1 -3.1 97 0.0 CALM 0 13 0 7 1012.1 1014.3 0.0
16/08:00pm -2.9 -5.3 -3.3 97 0.0 CALM 0 0 0 0 1011.8 1013.9 0.0
16/07:30pm -2.6 -5.7 -3.0 97 0.0 NW 4 30 2 16 1011.4 1013.5 0.0
16/07:00pm -2.6 -7.8 -3.0 97 0.0 NW 15 32 8 17 1011.1 1013.2 0.0
16/06:30pm -2.2 -4.9 -2.6 97 0.0 NNW 2 30 1 16 1011.0 1013.0 0.0
16/06:00pm -2.4 -8.4 -2.8 97 0.0 NW 19 32 10 17 1010.7 1012.8 0.0
16/05:30pm -2.4 -8.0 -2.8 97 0.0 NW 17 30 9 16 1010.6 1012.7 0.0
16/05:00pm -2.0 -8.5 -2.3 98 0.0 WNW 22 39 12 21 1010.4 1012.4 0.0
16/04:30pm -1.4 -4.9 -1.7 98 0.0 NW 7 28 4 15 1010.4 1012.4 0.0
16/04:00pm -1.2 -4.7 -1.5 98 0.1 NW 7 22 4 12 1010.6 1012.7 0.0
16/03:30pm -1.2 -3.8 -1.5 98 0.1 NNW 2 26 1 14 1010.4 1012.4 0.0
16/03:00pm -0.9 -4.2 -1.2 98 0.1 NW 6 28 3 15 1010.2 1012.3 0.0
16/02:30pm -1.3 -6.0 -1.6 98 0.0 NNW 13 33 7 18 1009.9 1011.9 0.0
16/02:00pm -1.1 -4.6 -1.4 98 0.1 - 7 30 4 16 1009.9 1011.9 0.0
16/01:30pm -1.6 -8.4 -2.0 97 0.1 WNW 24 39 13 21 1009.8 1011.8 0.0
16/01:00pm -1.7 -8.1 -2.0 98 0.0 NW 22 35 12 19 1009.8 1011.8 0.0
16/12:30pm -2.2 -10.2 -2.6 97 0.0 WNW 30 39 16 21 1009.9 1011.9 0.0
16/12:00pm -2.8 -11.9 -3.3 96 0.0 WNW 35 46 19 25 1009.9 1011.9 0.0
16/11:30am -2.6 -10.7 -3.0 97 0.0 WNW 30 43 16 23 1010.0 1012.0 0.0
16/11:06am -2.8 -10.5 -3.2 97 0.0 WNW 28 46 15 25 1009.9 1011.9 0.0
16/11:00am -2.6 -10.3 -3.0 97 0.0 WNW 28 37 15 20 1010.0 1012.0 0.0
16/10:30am -2.9 -9.5 -3.3 97 0.0 NW 22 37 12 20 1010.0 1012.0 0.0
16/10:00am -3.0 -10.4 -3.5 96 0.0 NW 26 35 14 19 1009.9 1011.9 0.0
16/09:30am -3.5 -10.9 -4.0 96 0.0 NW 26 44 14 24 1009.4 1011.4 0.0
16/09:00am -3.6 -11.1 -4.1 96 0.0 NW 26 37 14 20 1009.2 1011.2 13.2
16/08:30am -4.2 -11.7 -4.9 95 0.1 WNW 26 39 14 21 1009.0 1011.0 13.2
16/08:00am -4.2 -11.7 -4.7 96 0.0 WNW 26 35 14 19 1008.8 1010.8 13.2
16/07:30am -4.2 -12.1 -4.7 96 0.0 WNW 28 37 15 20 1008.6 1010.5 13.2
16/07:00am -4.0 -9.8 -4.5 96 0.0 WNW 17 37 9 20 1008.5 1010.4 13.2
16/06:30am -4.2 -7.2 -4.7 96 0.0 WNW 2 22 1 12 1008.2 1010.2 13.2
16/06:00am -4.0 -9.8 -4.5 96 0.0 WNW 17 30 9 16 1008.1 1010.1 13.2
16/05:30am -4.2 -6.8 -4.7 96 0.0 CALM 0 24 0 13 1007.6 1009.6 13.2
16/05:00am -4.0 -7.3 -4.5 96 0.0 WNW 4 26 2 14 1007.5 1009.4 13.2
16/04:30am -3.6 -6.1 -4.1 96 0.0 CALM 0 0 0 0 1007.5 1009.4 13.2
16/04:00am -3.8 -9.9 -4.3 96 0.0 NW 19 35 10 19 1007.1 1009.1 13.2
16/03:30am -3.3 -9.4 -3.7 97 0.0 WNW 19 44 10 24 1006.9 1008.8 13.2
16/03:13am -3.2 -11.0 -3.6 97 0.0 WNW 28 44 15 24 1006.9 1008.8 13.2
16/03:00am -3.0 -6.2 -3.4 97 0.0 WNW 4 26 2 14 1007.1 1009.1 13.2
16/02:30am -2.9 -10.3 -3.3 97 0.0 WNW 26 44 14 24 1006.9 1008.8 13.2
16/02:00am -2.5 -10.9 -2.8 98 0.0 WNW 32 50 17 27 1006.7 1008.6 13.2
16/01:30am -2.6 -12.4 -2.9 98 0.0 WNW 39 61 21 33 1006.3 1008.2 13.2
16/01:03am -2.2 -11.9 -2.5 98 0.0 WNW 39 61 21 33 1006.3 1008.2 13.2
16/01:00am -2.1 -11.4 -2.4 98 0.0 NW 37 52 20 28 1006.3 1008.2 13.2
16/12:30am -1.8 -12.4 -2.1 98 0.0 WNW 44 65 24 35 1006.3 1008.2 13.2
16/12:02am -1.5 -12.1 -1.8 98 0.0 WNW 44 70 24 38 1006.3 1008.2 13.2
16/12:00am -1.4 -11.4 -1.7 98 0.0 WNW 41 57 22 31 1006.4 1008.3 13.2
 
Date/Time
EST
Temp
°C
App
Temp
°C
Dew
Point
°C
Rel
Hum
%
Delta-T
°C
Wind Press
QNH
hPa
Press
MSL
hPa
Rain since
9am
mm
Dir  Spd
km/h
Gust
km/h
Spd
kts
Gust
kts
15/11:32pm -1.6 -10.5 -1.9 98 0.0 WNW 35 54 19 29 1006.8 1008.7 13.2
15/11:30pm -1.6 -10.9 -1.9 98 0.0 WNW 37 54 20 29 1006.7 1008.6 13.2
15/11:03pm -1.2 -10.8 -1.3 99 0.0 NW 39 65 21 35 1006.7 1008.6 13.2
15/11:00pm -1.2 -10.8 -1.5 98 0.1 NW 39 56 21 30 1006.9 1008.8 13.2
15/10:30pm -1.1 -10.7 -1.2 99 0.0 NW 39 57 21 31 1007.0 1008.9 13.0
15/10:04pm -1.0 -11.3 -1.1 99 0.0 NW 43 61 23 33 1006.8 1008.7 13.0
15/10:00pm -1.0 -10.9 -1.1 99 0.0 WNW 41 57 22 31 1006.8 1008.7 13.0
15/09:30pm -0.9 -9.7 -1.2 98 0.1 NW 35 54 19 29 1007.1 1009.1 13.0
15/09:00pm -0.7 -11.0 -0.8 99 0.0 WNW 43 76 23 41 1006.7 1008.6 13.0
15/08:30pm -0.6 -11.8 -0.7 99 0.0 WNW 48 76 26 41 1006.6 1008.4 13.0
15/08:00pm -0.5 -11.7 -0.6 99 0.0 WNW 48 70 26 38 1006.4 1008.3 13.0
15/07:30pm -0.2 -11.3 -0.3 99 0.0 WNW 48 83 26 45 1006.4 1008.3 13.0
15/07:19pm -0.2 -10.0 -0.3 99 0.0 WNW 41 65 22 35 1006.3 1008.2 13.0
15/07:14pm -0.1 -9.5 -0.2 99 0.0 NW 39 65 21 35 1006.0 1007.8 12.6
15/07:01pm 0.1 -10.2 0.0 99 0.0 NNW 44 65 24 35 1005.4 1007.2 12.0
15/07:00pm 0.1 -10.1 0.0 99 0.0 NNW 43 59 23 32 1005.5 1007.3 12.0
15/06:30pm -0.2 -11.7 -0.3 99 0.0 NW 50 76 27 41 1005.5 1007.3 11.2
15/06:00pm 0.1 -10.6 0.0 99 0.0 NNW 46 67 25 36 1004.6 1006.5 10.0
15/05:30pm 0.0 -11.1 -0.1 99 0.0 NNW 48 67 26 36 1004.4 1006.2 10.0
15/05:00pm -0.3 -11.1 -0.4 99 0.0 NNW 46 67 25 36 1004.2 1006.0 8.4
15/04:30pm -0.5 -10.8 -0.8 98 0.1 NNW 43 61 23 33 1004.4 1006.2 7.6
15/04:02pm -0.8 -4.3 -1.1 98 0.1 NNW 7 57 4 31 1004.5 1006.3 7.6
15/04:00pm -0.8 -2.9 -0.9 99 0.0 CALM 0 0 0 0 1004.4 1006.2 7.6
15/03:30pm -0.9 -3.0 -1.0 99 0.0 CALM 0 0 0 0 1005.1 1006.9 7.6
15/03:00pm -1.1 -3.3 -1.4 98 0.1 CALM 0 0 0 0 1004.9 1006.7 7.4
15/02:30pm -0.8 -2.9 -0.9 99 0.0 CALM 0 0 0 0 1005.4 1007.2 7.4
15/02:00pm -1.0 -3.2 -1.3 98 0.1 CALM 0 0 0 0 1005.5 1007.3 7.4
15/01:30pm -1.2 -3.4 -1.5 98 0.1 CALM 0 0 0 0 1005.6 1007.4 7.4
15/01:00pm -1.2 -3.4 -1.5 98 0.1 CALM 0 0 0 0 1006.0 1007.8 6.8
15/12:30pm -1.7 -4.0 -2.0 98 0.0 CALM 0 0 0 0 1005.8 1007.7 6.4
15/12:00pm -2.3 -4.6 -2.6 98 0.0 CALM 0 0 0 0 1006.6 1008.4 6.0
15/11:30am -2.3 -4.6 -2.6 98 0.0 CALM 0 0 0 0 1007.0 1008.9 4.8
15/11:00am -2.2 -4.5 -2.5 98 0.0 CALM 0 0 0 0 1007.6 1009.6 3.8
15/10:30am -2.1 -5.7 -2.4 98 0.0 NNW 7 44 4 24 1007.7 1009.7 2.8
15/10:24am -2.1 -5.5 -2.4 98 0.0 NNW 6 44 3 24 1007.7 1009.7 2.4
15/10:00am -2.0 -4.3 -2.3 98 0.0 CALM 0 0 0 0 1008.0 1009.9 1.8
15/09:30am -2.0 -4.3 -2.3 98 0.0 CALM 0 0 0 0 1007.6 1009.6 0.6
15/09:02am -1.8 -11.5 -1.9 99 -0.1 NNW 39 59 21 32 1008.0 1009.9 0.0
15/09:00am -1.8 -11.1 -1.9 99 -0.1 NNW 37 52 20 28 1008.3 1010.3 1.0
15/08:42am -1.5 -10.4 -1.6 99 0.0 NNW 35 56 19 30 1008.5 1010.4 0.2
15/08:30am -1.4 -11.4 -1.5 99 0.0 NNW 41 56 22 30 1008.9 1010.9 0.0
15/08:23am -1.3 -10.5 -1.4 99 0.0 NNW 37 56 20 30 1009.4 1011.4 0.0
15/08:00am -1.2 -10.8 -1.3 99 0.0 NNW 39 52 21 28 1009.4 1011.4 0.0
15/07:35am -1.1 -10.3 -1.2 99 0.0 NNW 37 56 20 30 1009.5 1011.5 0.0
15/07:30am -1.1 -10.3 -1.2 99 0.0 NNW 37 54 20 29 1009.4 1011.4 0.0
15/07:12am -1.1 -10.7 -1.2 99 0.0 NNW 39 57 21 31 1009.9 1011.9 0.0
15/07:00am -1.1 -10.7 -1.2 99 0.0 NNW 39 52 21 28 1009.5 1011.5 0.0
15/06:30am -1.0 -10.2 -1.1 99 0.0 NNW 37 57 20 31 1009.6 1011.7 0.0
15/06:21am -0.9 -10.4 -1.0 99 0.0 NNW 39 57 21 31 1010.1 1012.2 0.0
15/06:00am -0.8 -11.1 -0.9 99 0.0 NNW 43 59 23 32 1010.6 1012.7 0.0
15/05:31am -0.7 -10.6 -0.8 99 0.0 NNW 41 59 22 32 1010.5 1012.5 0.0
15/05:30am -0.6 -10.9 -0.9 98 0.1 NNW 43 56 23 30 1010.4 1012.4 0.0
15/05:00am -0.6 -11.4 -0.7 99 0.0 NNW 46 65 25 35 1010.5 1012.5 0.0
15/04:30am -0.5 -11.3 -0.6 99 0.0 NNW 46 67 25 36 1010.7 1012.8 0.0
15/04:00am -0.3 -11.1 -0.4 99 0.0 NNW 46 67 25 36 1011.1 1013.2 0.0
15/03:30am -0.2 -11.7 -0.3 99 0.0 NNW 50 72 27 39 1010.8 1012.9 0.0
15/03:00am -0.3 -12.2 -0.4 99 0.0 NNW 52 83 28 45 1011.1 1013.2 0.0
15/02:30am -0.1 -11.6 -0.2 99 0.0 NNW 50 69 27 37 1011.9 1014.0 0.0
15/02:00am 0.0 -11.9 -0.1 99 0.0 NNW 52 78 28 42 1012.3 1014.4 0.0
15/01:39am 0.1 -10.6 0.0 99 0.0 NNW 46 65 25 35 1013.0 1015.1 0.0
15/01:30am 0.1 -11.4 0.0 99 0.0 NNW 50 65 27 35 1013.0 1015.1 0.0
15/01:00am 0.1 -11.0 -0.2 98 0.1 NNW 48 69 26 37 1013.8 1016.0 0.0
15/12:31am 0.1 -10.6 0.0 99 0.0 NNW 46 67 25 36 1014.3 1016.5 0.0
15/12:30am 0.1 -10.6 0.0 99 0.0 NNW 46 63 25 34 1014.4 1016.6 0.0
15/12:00am 0.1 -10.1 0.0 99 0.0 NNW 43 67 23 36 1014.5 1016.8 0.0
 
Date/Time
EST
Temp
°C
App
Temp
°C
Dew
Point
°C
Rel
Hum
%
Delta-T
°C
Wind Press
QNH
hPa
Press
MSL
hPa
Rain since
9am
mm
Dir  Spd
km/h
Gust
km/h
Spd
kts
Gust
kts
14/11:30pm 0.1 -10.1 0.0 99 0.0 NNW 43 61 23 33 1015.6 1017.9 0.0
14/11:00pm 0.1 -10.2 0.0 99 0.0 NNW 44 65 24 35 1015.7 1018.0 0.0
14/10:36pm 0.1 -10.1 0.0 99 0.0 NNW 43 61 23 33 1015.9 1018.2 0.0
14/10:30pm 0.1 -9.7 0.0 99 0.0 NNW 41 57 22 31 1016.1 1018.4 0.0
14/10:22pm 0.2 -9.2 0.1 99 0.0 NNW 39 57 21 31 1016.3 1018.6 0.0
14/10:00pm 0.1 -9.3 0.0 99 0.0 NNW 39 54 21 29 1016.7 1019.0 0.0
14/09:30pm 0.1 -9.3 0.0 99 0.0 NNW 39 59 21 32 1016.7 1019.0 0.0
14/09:01pm -0.1 -9.1 -0.2 99 0.0 NNW 37 56 20 30 1017.0 1019.4 0.0
14/09:00pm -0.2 -9.3 -0.3 99 0.0 NNW 37 52 20 28 1017.0 1019.4 0.0
14/08:30pm -0.3 -9.8 -0.4 99 0.0 NNW 39 57 21 31 1016.7 1019.0 0.0
14/08:29pm -0.3 -9.8 -0.4 99 0.0 NNW 39 57 21 31 1016.8 1019.1 0.0
14/08:00pm -0.4 -9.5 -0.5 99 0.0 NNW 37 50 20 27 1017.5 1019.9 0.0
14/07:30pm -0.7 -9.4 -0.8 99 0.0 NNW 35 48 19 26 1017.7 1020.1 0.0
14/07:19pm -0.4 -7.8 -0.5 99 0.0 NNW 28 46 15 25 1018.0 1020.4 0.0
14/07:00pm -0.4 -8.5 -0.5 99 0.0 NNW 32 43 17 23 1017.9 1020.2 0.0
14/06:30pm -0.4 -8.7 -0.5 99 0.0 NW 33 43 18 23 1018.0 1020.4 0.0
14/06:00pm -0.6 -7.2 -0.7 99 0.0 NW 24 37 13 20 1018.1 1020.5 0.0
14/05:34pm -0.3 -7.7 -0.4 99 0.0 NNW 28 48 15 26 1017.9 1020.2 0.0
14/05:30pm -0.4 -7.4 -0.7 98 0.1 NNW 26 48 14 26 1017.7 1020.1 0.0
14/05:00pm -0.3 -6.1 -0.4 99 0.0 NNW 20 37 11 20 1018.1 1020.5 0.0
14/04:30pm 0.1 -6.8 0.0 99 0.0 NW 26 37 14 20 1018.2 1020.6 0.0
14/04:00pm 0.1 -8.2 0.0 99 0.0 NNW 33 46 18 25 1018.1 1020.5 0.0
14/03:30pm 0.1 -7.6 0.0 99 0.0 NNW 30 39 16 21 1018.3 1020.7 0.0
14/03:00pm 0.1 -7.6 0.0 99 0.0 NW 30 43 16 23 1018.7 1021.1 0.0
14/02:30pm 0.0 -7.7 -0.3 98 0.1 NW 30 39 16 21 1018.8 1021.2 0.0
14/02:00pm 0.0 -8.7 -0.3 98 0.1 NNW 35 44 19 24 1019.0 1021.5 0.0
14/01:30pm 0.1 -8.9 -0.2 98 0.1 NW 37 48 20 26 1018.9 1021.4 0.0
14/01:00pm 0.2 -7.9 -0.2 97 0.2 NW 32 48 17 26 1019.6 1022.1 0.0
14/12:54pm 0.1 -7.2 -0.2 98 0.1 NNW 28 48 15 26 1019.8 1022.2 0.0
14/12:30pm 0.2 -5.9 0.1 99 0.0 NNW 22 35 12 19 1020.6 1023.1 0.0
14/12:00pm 0.0 -3.7 -0.1 99 0.0 NNW 9 24 5 13 1021.7 1024.2 0.0
14/11:30am 0.1 -5.7 0.0 99 0.0 NW 20 32 11 17 1022.1 1024.7 0.0
14/11:00am 0.1 -5.7 0.0 99 0.0 NW 20 33 11 18 1022.3 1024.8 0.0
14/10:30am 0.0 -4.1 -0.1 99 0.0 NW 11 32 6 17 1022.5 1025.1 0.0
14/10:00am -0.2 -7.5 -0.3 99 0.0 NW 28 39 15 21 1022.3 1024.8 0.0
14/09:30am -0.3 -7.7 -0.4 99 0.0 NW 28 37 15 20 1022.1 1024.7 0.0
14/09:00am -0.5 -7.9 -0.6 99 0.0 NW 28 37 15 20 1022.3 1024.8 0.0
14/08:30am -0.8 -7.9 -0.9 99 0.0 WNW 26 39 14 21 1022.4 1025.0 0.0
14/08:00am -0.9 -9.7 -1.2 98 0.1 WNW 35 52 19 28 1022.0 1024.6 0.0
14/07:35am -1.0 -9.8 -1.1 99 0.0 WNW 35 56 19 30 1021.7 1024.2 0.0
14/07:30am -1.0 -9.4 -1.1 99 0.0 WNW 33 44 18 24 1021.5 1024.1 0.0
14/07:00am -1.1 -9.5 -1.2 99 0.0 NW 33 46 18 25 1021.3 1023.8 0.0
14/06:30am -1.0 -9.8 -1.1 99 0.0 WNW 35 48 19 26 1020.9 1023.5 0.0
14/06:00am -1.0 -9.4 -1.1 99 0.0 NW 33 43 18 23 1021.3 1023.8 0.0
14/05:30am -0.9 -8.3 -1.0 99 0.0 NW 28 41 15 22 1021.2 1023.7 0.0
14/05:00am -0.9 -8.7 -1.0 99 0.0 WNW 30 37 16 20 1021.2 1023.7 0.0
14/04:30am -0.9 -8.0 -1.0 99 0.0 WNW 26 37 14 20 1021.3 1023.8 0.0
14/04:00am -0.9 -8.3 -1.0 99 0.0 WNW 28 41 15 22 1021.3 1023.8 0.0
14/03:30am -0.8 -8.6 -0.9 99 0.0 NW 30 41 16 22 1021.3 1023.8 0.0
14/03:00am -0.8 -7.9 -0.9 99 0.0 WNW 26 41 14 22 1021.3 1023.8 0.0
14/02:30am -0.8 -7.1 -0.9 99 0.0 NW 22 37 12 20 1021.4 1024.0 0.0
14/02:00am -0.8 -6.1 -0.9 99 0.0 NW 17 35 9 19 1021.8 1024.3 0.0
14/01:30am -0.6 -8.4 -0.7 99 0.0 NW 30 44 16 24 1022.0 1024.6 0.0
14/01:00am -0.6 -7.6 -0.7 99 0.0 NW 26 41 14 22 1022.1 1024.7 0.0
14/12:30am -0.6 -7.7 -0.9 98 0.1 NW 26 37 14 20 1022.3 1024.8 0.0
14/12:00am -0.3 -8.0 -0.4 99 0.0 NW 30 39 16 21 1022.3 1024.8 0.0
 
Date/Time
EST
Temp
°C
App
Temp
°C
Dew
Point
°C
Rel
Hum
%
Delta-T
°C
Wind Press
QNH
hPa
Press
MSL
hPa
Rain since
9am
mm
Dir  Spd
km/h
Gust
km/h
Spd
kts
Gust
kts
13/11:30pm -0.2 -8.3 -0.3 99 0.0 WNW 32 43 17 23 1021.9 1024.5 0.0
13/11:17pm 0.0 -7.7 -0.1 99 0.0 WNW 30 48 16 26 1021.9 1024.5 0.0
13/11:00pm -0.1 -9.5 -0.2 99 0.0 WNW 39 54 21 29 1021.8 1024.3 0.0
13/10:31pm 0.0 -8.3 -0.1 99 0.0 NW 33 54 18 29 1021.9 1024.5 0.0
13/10:30pm 0.0 -8.3 -0.1 99 0.0 WNW 33 50 18 27 1021.9 1024.5 0.0

Other Formats:

Comma delimited format used in spreadsheet applications
http://www.bom.gov.au/fwo/IDV60801/IDV60801.94903.axf

JavaScript Object Notation format (JSON) in row-major order
http://www.bom.gov.au/fwo/IDV60801/IDV60801.94903.json